Terminal Aerodrome Forecast
Issued by NWS Mt. Holly, NJ

Home | Current Version | Previous Version | Text Only | Print | Product List | Glossary On
Versions: 1 2 3 4 5 6 7 8 9 10 11 12 13 14 15 16 17 18 19 20 21 22 23 24 25 26
677
FTUS41 KPHI 311720
TAFACY
TAF
KACY 311720Z 3118/0118 12010KT P6SM SCT045
     FM312200 15010KT P6SM FEW045
     FM010100 VRB02KT 6SM BR SCT250
     FM010400 00000KT 2SM BR FEW250
     FM010700 00000KT 1/2SM FG VV004
     FM011400 06009KT P6SM BKN250=

USA.gov is the U.S. government's official web portal to all federal, state and local government web resources and services.